createdAt,value
2022-11-03T00:01:48.733Z,94.10
2022-11-03T00:04:19.028Z,94.20
2022-11-03T00:06:47.811Z,94.30
2022-11-03T00:09:16.989Z,94.20
2022-11-03T00:11:45.651Z,94.20
2022-11-03T00:14:14.787Z,94.00
2022-11-03T00:16:42.394Z,93.50
2022-11-03T00:19:11.608Z,93.50
2022-11-03T00:21:39.105Z,93.20
2022-11-03T00:24:06.865Z,93.00
2022-11-03T00:26:36.142Z,92.80
2022-11-03T00:29:08.072Z,92.80
2022-11-03T00:31:37.464Z,92.80
2022-11-03T00:34:05.720Z,92.60
2022-11-03T00:36:40.777Z,92.60
2022-11-03T00:39:08.609Z,92.10
2022-11-03T00:41:38.327Z,92.40
2022-11-03T00:44:06.001Z,92.30
2022-11-03T00:46:36.343Z,92.20
2022-11-03T00:49:04.975Z,92.10
2022-11-03T00:51:34.694Z,91.80
2022-11-03T00:54:02.912Z,91.80
2022-11-03T00:56:31.963Z,91.70
2022-11-03T00:59:00.628Z,91.70
2022-11-03T01:01:31.671Z,91.60
2022-11-03T01:04:18.887Z,91.40
2022-11-03T01:06:51.506Z,91.50
2022-11-03T01:09:22.915Z,91.60
2022-11-03T01:11:58.565Z,91.20
2022-11-03T01:14:27.763Z,91.60
2022-11-03T01:16:56.786Z,91.30
2022-11-03T01:19:25.716Z,90.90
2022-11-03T01:21:54.414Z,91.00
2022-11-03T01:24:22.436Z,91.10
2022-11-03T01:26:50.259Z,91.20
2022-11-03T01:29:21.040Z,91.30
2022-11-03T01:31:49.240Z,91.30
2022-11-03T01:34:18.116Z,91.20
2022-11-03T01:36:49.253Z,91.00
2022-11-03T01:39:17.816Z,90.70
2022-11-03T01:41:46.589Z,90.70
2022-11-03T01:44:14.900Z,89.60
2022-11-03T01:46:48.898Z,90.10
2022-11-03T01:49:21.604Z,90.40
2022-11-03T01:51:52.857Z,90.00
2022-11-03T01:54:22.040Z,90.40
2022-11-03T01:56:52.522Z,90.50
2022-11-03T01:59:21.588Z,90.50
2022-11-03T02:01:49.701Z,90.30
2022-11-03T02:04:26.915Z,90.30
2022-11-03T02:06:59.051Z,89.60
2022-11-03T02:09:26.837Z,88.00
2022-11-03T02:12:06.854Z,87.80
2022-11-03T02:14:42.814Z,87.00
2022-11-03T02:17:13.300Z,85.80
2022-11-03T02:19:53.149Z,85.40
2022-11-03T02:22:38.951Z,85.00
2022-11-03T02:25:07.192Z,85.00
2022-11-03T02:27:35.216Z,84.30
2022-11-03T02:30:04.320Z,83.30
2022-11-03T02:32:59.203Z,83.40
2022-11-03T02:35:35.374Z,83.30
2022-11-03T02:38:04.103Z,83.80
2022-11-03T02:40:35.372Z,83.10
2022-11-03T02:43:04.700Z,82.50
2022-11-03T02:45:33.499Z,82.60
2022-11-03T02:48:02.917Z,80.90
2022-11-03T02:50:33.360Z,81.70
2022-11-03T02:53:01.363Z,81.20
2022-11-03T02:55:35.318Z,81.60
2022-11-03T02:58:05.771Z,82.30
2022-11-03T03:00:36.932Z,79.60
2022-11-03T03:03:09.103Z,80.30
2022-11-03T03:05:37.677Z,80.10
2022-11-03T03:08:09.897Z,78.80
2022-11-03T03:10:39.862Z,81.10
2022-11-03T03:13:08.497Z,80.00
2022-11-03T03:15:36.311Z,80.10
2022-11-03T03:18:24.094Z,78.30
2022-11-03T03:21:05.643Z,79.00
2022-11-03T03:23:36.962Z,78.90
2022-11-03T03:26:16.305Z,79.80
2022-11-03T03:28:52.564Z,79.40
2022-11-03T03:31:23.456Z,75.50
2022-11-03T03:33:59.734Z,76.60
2022-11-03T03:36:33.840Z,77.00
2022-11-03T03:39:04.263Z,77.30
2022-11-03T03:41:33.345Z,76.90
2022-11-03T03:44:06.685Z,77.20
2022-11-03T03:46:37.491Z,78.00
2022-11-03T03:49:06.262Z,77.30
2022-11-03T03:51:34.519Z,76.60
2022-11-03T03:54:02.090Z,76.20
2022-11-03T03:56:32.673Z,76.80
2022-11-03T03:59:01.085Z,77.60
2022-11-03T04:01:29.224Z,77.10
2022-11-03T04:03:57.672Z,77.80
2022-11-03T04:06:25.380Z,77.10
2022-11-03T04:08:53.776Z,75.90
2022-11-03T04:11:40.139Z,73.00
2022-11-03T04:14:27.388Z,74.10
2022-11-03T04:17:14.148Z,74.30
2022-11-03T04:20:00.009Z,74.20
2022-11-03T04:22:30.887Z,76.40
2022-11-03T04:24:59.995Z,74.30
2022-11-03T04:27:27.567Z,73.50
2022-11-03T04:30:10.736Z,72.50
2022-11-03T04:32:38.671Z,74.90
2022-11-03T04:35:18.741Z,74.80
2022-11-03T04:37:49.895Z,75.30
2022-11-03T04:42:59.446Z,75.70
2022-11-03T04:45:46.913Z,71.60
2022-11-03T04:48:18.632Z,74.40
2022-11-03T04:50:49.180Z,75.30
2022-11-03T04:53:18.236Z,71.20
2022-11-03T04:55:48.143Z,69.50
2022-11-03T04:58:27.103Z,71.30
2022-11-03T05:00:59.712Z,71.80
2022-11-03T05:03:31.726Z,70.60
2022-11-03T05:05:59.750Z,72.80
2022-11-03T05:08:30.314Z,70.30
2022-11-03T05:11:01.147Z,68.30
2022-11-03T05:13:29.398Z,68.50
2022-11-03T05:16:02.430Z,69.90
2022-11-03T05:21:43.544Z,67.10
2022-11-03T05:24:12.682Z,63.90
2022-11-03T05:26:40.346Z,64.20
2022-11-03T05:29:16.776Z,65.40
2022-11-03T05:31:46.021Z,64.70
2022-11-03T05:34:26.279Z,67.60
2022-11-03T05:36:53.952Z,67.30
2022-11-03T05:39:31.375Z,66.60
2022-11-03T05:42:00.071Z,70.00
2022-11-03T05:44:38.219Z,64.50
2022-11-03T05:47:25.920Z,69.60
2022-11-03T05:49:55.825Z,66.20
2022-11-03T05:52:25.083Z,67.00
2022-11-03T05:54:57.146Z,65.50
2022-11-03T05:57:26.196Z,66.70
2022-11-03T05:59:53.746Z,65.30
2022-11-03T06:02:27.352Z,64.50
2022-11-03T06:04:55.010Z,62.70
2022-11-03T06:07:27.496Z,64.20
2022-11-03T06:09:55.928Z,64.90
2022-11-03T06:12:26.090Z,65.80
2022-11-03T06:14:55.091Z,66.70
2022-11-03T06:17:24.134Z,62.90
2022-11-03T06:19:54.908Z,59.70
2022-11-03T06:22:29.045Z,60.00
2022-11-03T06:25:00.105Z,62.90
2022-11-03T06:27:31.272Z,59.00
2022-11-03T06:30:03.333Z,59.70
2022-11-03T06:32:34.703Z,56.80
2022-11-03T06:35:05.632Z,59.20
2022-11-03T06:37:34.084Z,59.90
2022-11-03T06:40:05.475Z,66.30
2022-11-03T06:42:36.123Z,58.80
2022-11-03T06:45:13.400Z,62.20
2022-11-03T06:47:41.133Z,67.90
2022-11-03T06:50:23.172Z,59.90
2022-11-03T06:52:51.058Z,53.80
2022-11-03T06:55:28.130Z,57.10
2022-11-03T06:57:58.840Z,63.30
2022-11-03T07:00:35.125Z,61.20
2022-11-03T07:03:13.195Z,62.30
2022-11-03T07:05:41.402Z,61.60
2022-11-03T07:08:19.745Z,59.10
2022-11-03T07:10:48.073Z,59.90
2022-11-03T07:13:23.144Z,60.00
2022-11-03T07:15:52.111Z,61.00
2022-11-03T07:18:32.711Z,59.00
2022-11-03T07:21:04.083Z,59.00
2022-11-03T07:23:32.589Z,58.50
2022-11-03T07:26:01.806Z,59.80
2022-11-03T07:28:36.294Z,59.40
2022-11-03T07:31:16.313Z,59.20
2022-11-03T07:33:44.396Z,62.00
2022-11-03T07:36:16.792Z,66.00
2022-11-03T07:38:47.770Z,58.40
2022-11-03T07:41:23.021Z,59.60
2022-11-03T07:43:56.468Z,63.90
2022-11-03T07:46:24.662Z,62.50
2022-11-03T07:48:52.402Z,58.00
2022-11-03T07:51:24.938Z,58.50
2022-11-03T07:54:03.526Z,59.80
2022-11-03T07:56:36.171Z,56.90
2022-11-03T07:59:11.992Z,58.90
2022-11-03T08:01:45.318Z,56.00
2022-11-03T08:04:26.399Z,61.70
2022-11-03T08:06:55.020Z,55.80
2022-11-03T08:09:23.205Z,60.20
2022-11-03T08:11:51.407Z,57.60
2022-11-03T08:14:19.414Z,57.80
2022-11-03T08:16:47.256Z,58.80
2022-11-03T08:19:15.494Z,58.30
2022-11-03T08:21:44.968Z,57.20
2022-11-03T08:24:14.023Z,59.80
2022-11-03T08:26:42.588Z,59.60
2022-11-03T08:29:10.582Z,62.90
2022-11-03T08:31:38.185Z,57.10
2022-11-03T08:34:08.524Z,58.30
2022-11-03T08:36:37.187Z,56.40
2022-11-03T08:39:05.861Z,57.80
2022-11-03T08:41:33.451Z,60.10
2022-11-03T08:44:01.327Z,59.20
2022-11-03T08:46:29.063Z,61.10
2022-11-03T08:48:56.820Z,60.00
2022-11-03T08:51:24.542Z,58.90
2022-11-03T08:53:54.374Z,60.00
2022-11-03T08:56:22.663Z,59.40
2022-11-03T08:58:50.666Z,59.30
2022-11-03T09:01:19.176Z,60.00
2022-11-03T09:03:46.926Z,60.00
2022-11-03T09:06:15.478Z,60.30
2022-11-03T09:11:31.027Z,57.10
2022-11-03T09:13:58.554Z,60.50
2022-11-03T09:16:29.743Z,60.80
2022-11-03T09:18:57.608Z,61.10
2022-11-03T09:21:25.611Z,59.00
2022-11-03T09:23:53.391Z,59.40
2022-11-03T09:26:25.165Z,61.20
2022-11-03T09:28:53.026Z,60.60
2022-11-03T09:31:20.710Z,61.40
2022-11-03T09:33:49.157Z,59.80
2022-11-03T09:36:17.468Z,58.40
2022-11-03T09:38:45.112Z,59.70
2022-11-03T09:41:26.626Z,59.80
2022-11-03T09:43:58.201Z,63.00
2022-11-03T09:46:26.390Z,61.20
2022-11-03T09:48:55.167Z,58.30
2022-11-03T09:51:25.164Z,59.80
2022-11-03T09:53:52.796Z,60.70
2022-11-03T09:56:24.498Z,61.20
2022-11-03T09:58:54.726Z,60.00
2022-11-03T10:01:23.300Z,60.40
2022-11-03T10:03:51.026Z,61.30
2022-11-03T10:06:20.093Z,60.80
2022-11-03T10:08:48.163Z,61.80
2022-11-03T10:11:15.963Z,60.90
2022-11-03T10:13:47.464Z,61.90
2022-11-03T10:16:17.679Z,61.30
2022-11-03T10:18:45.946Z,61.90
2022-11-03T10:21:21.267Z,62.30
2022-11-03T10:23:50.972Z,62.90
2022-11-03T10:26:19.947Z,63.10
2022-11-03T10:29:06.424Z,63.40
2022-11-03T10:31:38.815Z,63.30
2022-11-03T10:34:07.084Z,63.00
2022-11-03T10:36:34.955Z,62.50
2022-11-03T10:39:22.347Z,63.00
2022-11-03T10:41:57.532Z,62.80
2022-11-03T10:44:27.166Z,63.00
2022-11-03T10:46:59.817Z,64.10
2022-11-03T10:49:31.610Z,63.90
2022-11-03T10:52:14.833Z,63.70
2022-11-03T10:54:42.486Z,64.60
2022-11-03T10:57:10.609Z,64.70
2022-11-03T10:59:39.133Z,64.90
2022-11-03T11:02:15.282Z,65.50
2022-11-03T11:04:43.154Z,65.40
2022-11-03T11:07:27.007Z,65.40
2022-11-03T11:09:54.937Z,65.90
2022-11-03T11:12:24.007Z,66.00
2022-11-03T11:15:01.831Z,66.30
2022-11-03T11:17:38.311Z,66.50
2022-11-03T11:20:24.529Z,66.90
2022-11-03T11:22:52.406Z,67.00
2022-11-03T11:25:20.013Z,67.00
2022-11-03T11:27:47.584Z,67.30
2022-11-03T11:30:21.025Z,67.40
2022-11-03T11:33:00.163Z,67.60
2022-11-03T11:35:27.646Z,67.70
2022-11-03T11:37:55.300Z,67.70
2022-11-03T11:40:25.672Z,68.00
2022-11-03T11:43:14.266Z,68.00
2022-11-03T11:46:01.015Z,68.20
2022-11-03T11:48:28.631Z,68.30
2022-11-03T11:50:57.752Z,68.50
2022-11-03T11:53:31.509Z,68.50
2022-11-03T11:56:00.832Z,68.80
2022-11-03T11:58:34.520Z,68.70
2022-11-03T12:01:06.674Z,68.90
2022-11-03T12:03:39.726Z,69.00
2022-11-03T12:06:07.759Z,69.20
2022-11-03T12:08:35.699Z,69.30
2022-11-03T12:11:04.457Z,69.40
2022-11-03T12:14:02.540Z,69.50
2022-11-03T12:16:30.905Z,69.80
2022-11-03T12:19:18.204Z,70.00
2022-11-03T12:21:49.416Z,70.10
2022-11-03T12:24:32.529Z,70.20
2022-11-03T12:27:00.881Z,70.10
2022-11-03T12:29:28.480Z,70.50
2022-11-03T12:31:56.306Z,70.60
2022-11-03T12:34:23.854Z,70.60
2022-11-03T12:36:55.979Z,70.50
2022-11-03T12:39:23.956Z,70.70
2022-11-03T12:41:51.459Z,70.90
2022-11-03T12:44:19.501Z,71.50
2022-11-03T12:46:47.361Z,71.30
2022-11-03T12:49:14.854Z,71.40
2022-11-03T12:51:42.398Z,71.70
2022-11-03T12:54:10.812Z,72.10
2022-11-03T12:56:38.305Z,72.20
2022-11-03T12:59:05.992Z,72.30
2022-11-03T13:01:34.678Z,72.60
2022-11-03T13:04:02.294Z,73.10
2022-11-03T13:06:29.823Z,73.20
2022-11-03T13:08:57.464Z,73.50
2022-11-03T13:11:43.573Z,73.70
2022-11-03T13:14:12.605Z,73.70
2022-11-03T13:16:40.178Z,74.00
2022-11-03T13:19:10.522Z,74.50
2022-11-03T13:21:38.645Z,75.70
2022-11-03T13:24:06.400Z,75.30
2022-11-03T13:26:34.704Z,75.50
2022-11-03T13:29:06.183Z,76.00
2022-11-03T13:31:34.538Z,76.20
2022-11-03T13:34:02.106Z,76.40
2022-11-03T13:36:30.561Z,76.50
2022-11-03T13:38:58.141Z,76.40
2022-11-03T13:41:25.741Z,76.80
2022-11-03T13:43:53.294Z,76.60
2022-11-03T13:46:20.817Z,76.30
2022-11-03T13:51:36.818Z,77.60
2022-11-03T13:59:40.489Z,78.50
2022-11-03T14:04:55.729Z,78.70
2022-11-03T14:07:23.305Z,78.50
2022-11-03T14:09:51.119Z,78.70
2022-11-03T14:12:35.377Z,78.30
2022-11-03T14:15:08.162Z,79.30
2022-11-03T14:17:37.329Z,79.90
2022-11-03T14:20:05.461Z,79.30
2022-11-03T14:22:33.186Z,80.30
2022-11-03T14:25:01.571Z,80.30
2022-11-03T14:27:29.245Z,80.30
2022-11-03T14:29:56.885Z,80.20
2022-11-03T14:32:24.474Z,81.60
2022-11-03T14:34:52.833Z,81.50
2022-11-03T14:37:20.515Z,81.20
2022-11-03T14:39:48.060Z,81.30
2022-11-03T14:42:16.799Z,81.50
2022-11-03T14:44:46.687Z,81.20
2022-11-03T14:47:15.576Z,81.30
2022-11-03T14:49:43.801Z,80.70
2022-11-03T14:52:11.324Z,80.70
2022-11-03T14:54:38.891Z,81.50
2022-11-03T14:57:06.467Z,81.60
2022-11-03T14:59:34.368Z,81.80
2022-11-03T15:02:02.649Z,82.20
2022-11-03T15:04:30.292Z,82.50
2022-11-03T15:06:57.812Z,82.70
2022-11-03T15:09:26.217Z,81.90
2022-11-03T15:11:55.156Z,81.70
2022-11-03T15:14:23.904Z,82.30
2022-11-03T15:16:51.397Z,82.50
2022-11-03T15:19:20.033Z,82.50
2022-11-03T15:21:48.371Z,82.50
2022-11-03T15:27:05.057Z,83.80
2022-11-03T15:29:32.626Z,84.20
2022-11-03T15:32:00.108Z,84.20
2022-11-03T15:34:28.420Z,84.20
2022-11-03T15:36:57.201Z,84.00
2022-11-03T15:39:24.733Z,84.30
2022-11-03T15:41:52.230Z,84.80
2022-11-03T15:44:20.217Z,84.20
2022-11-03T15:46:48.602Z,84.30
2022-11-03T15:49:16.124Z,83.90
2022-11-03T15:51:43.584Z,83.90
2022-11-03T15:54:11.077Z,84.10
2022-11-03T15:56:38.911Z,85.30
2022-11-03T15:59:06.391Z,84.90
2022-11-03T16:01:34.533Z,85.50
2022-11-03T16:04:02.334Z,85.00
2022-11-03T16:06:53.877Z,84.90
2022-11-03T16:09:17.379Z,86.40
2022-11-03T16:11:44.927Z,86.00
2022-11-03T16:14:13.296Z,86.30
2022-11-03T16:16:41.888Z,85.70
2022-11-03T16:19:10.859Z,86.60
2022-11-03T16:21:38.370Z,86.50
2022-11-03T16:24:06.017Z,85.80
2022-11-03T16:26:36.089Z,86.50
2022-11-03T16:29:03.862Z,87.40
2022-11-03T16:31:32.017Z,87.00
2022-11-03T16:33:59.582Z,88.10
2022-11-03T16:36:27.172Z,87.90
2022-11-03T16:38:54.709Z,87.70
2022-11-03T16:41:23.935Z,88.50
2022-11-03T16:43:51.425Z,88.50
2022-11-03T16:46:19.895Z,89.50
2022-11-03T16:48:48.386Z,89.10
2022-11-03T16:51:16.832Z,89.40
2022-11-03T16:53:44.291Z,89.00
2022-11-03T16:56:11.793Z,90.10
2022-11-03T16:58:39.311Z,90.00
2022-11-03T17:01:08.005Z,90.10
2022-11-03T17:03:36.167Z,89.80
2022-11-03T17:06:03.688Z,89.40
2022-11-03T17:08:52.001Z,90.00
2022-11-03T17:11:36.189Z,90.50
2022-11-03T17:14:04.889Z,90.00
2022-11-03T17:16:32.470Z,90.00
2022-11-03T17:19:00.294Z,90.20
2022-11-03T17:21:28.153Z,90.40
2022-11-03T17:23:55.711Z,90.70
2022-11-03T17:26:25.877Z,90.50
2022-11-03T17:28:54.596Z,90.70
2022-11-03T17:31:22.810Z,91.20
2022-11-03T17:33:50.421Z,91.20
2022-11-03T17:36:17.939Z,91.30
2022-11-03T17:38:46.376Z,91.20
2022-11-03T17:41:16.474Z,90.90
2022-11-03T17:43:46.526Z,90.70
2022-11-03T17:46:14.973Z,90.50
2022-11-03T17:48:42.528Z,90.80
2022-11-03T17:51:12.466Z,91.20
2022-11-03T17:53:41.040Z,90.90
2022-11-03T17:59:01.033Z,90.60
2022-11-03T18:01:28.751Z,91.00
2022-11-03T18:03:56.359Z,90.90
2022-11-03T18:06:24.537Z,90.80
2022-11-03T18:08:52.120Z,91.00
2022-11-03T18:11:46.606Z,91.00
2022-11-03T18:14:14.224Z,91.20
2022-11-03T18:16:41.882Z,91.50
2022-11-03T18:19:13.948Z,91.70
2022-11-03T18:21:41.600Z,91.10
2022-11-03T18:24:13.937Z,91.10
2022-11-03T18:26:42.644Z,91.60
2022-11-03T18:29:10.207Z,91.50
2022-11-03T18:31:50.206Z,91.00
2022-11-03T18:34:20.252Z,91.20
2022-11-03T18:36:47.751Z,91.30
2022-11-03T18:39:18.493Z,91.70
2022-11-03T18:41:46.204Z,91.80
2022-11-03T18:44:16.748Z,92.10
2022-11-03T18:46:44.357Z,91.60
2022-11-03T18:49:12.350Z,91.10
2022-11-03T18:51:40.221Z,91.40
2022-11-03T18:54:09.139Z,91.40
2022-11-03T18:56:38.271Z,92.00
2022-11-03T18:59:06.405Z,92.00
2022-11-03T19:01:34.173Z,91.70
2022-11-03T19:04:01.971Z,91.20
2022-11-03T19:06:29.499Z,91.50
2022-11-03T19:08:59.992Z,91.60
2022-11-03T19:11:27.591Z,91.30
2022-11-03T19:13:55.256Z,91.70
2022-11-03T19:16:24.576Z,92.20
2022-11-03T19:18:52.631Z,92.20
2022-11-03T19:21:22.270Z,92.10
2022-11-03T19:23:52.984Z,92.00
2022-11-03T19:26:27.412Z,91.70
2022-11-03T19:28:56.482Z,91.50
2022-11-03T19:31:44.052Z,91.60
2022-11-03T19:34:23.510Z,91.40
2022-11-03T19:36:51.708Z,92.30
2022-11-03T19:39:45.441Z,92.00
2022-11-03T19:42:28.783Z,92.10
2022-11-03T19:45:00.473Z,91.70
2022-11-03T19:47:32.764Z,92.00
2022-11-03T19:50:02.336Z,92.00
2022-11-03T19:52:31.826Z,92.40
2022-11-03T19:55:01.260Z,92.20
2022-11-03T19:57:28.827Z,93.00
2022-11-03T19:59:59.272Z,93.00
2022-11-03T20:02:28.521Z,93.00
2022-11-03T20:04:56.168Z,92.70
2022-11-03T20:07:31.069Z,92.70
2022-11-03T20:09:59.158Z,92.60
2022-11-03T20:12:26.800Z,92.70
2022-11-03T20:14:54.395Z,92.90
2022-11-03T20:17:23.406Z,92.90
2022-11-03T20:19:52.383Z,92.90
2022-11-03T20:22:28.169Z,93.00
2022-11-03T20:24:59.439Z,93.00
2022-11-03T20:27:26.977Z,92.80
2022-11-03T20:29:54.566Z,92.80
2022-11-03T20:32:22.061Z,92.70
2022-11-03T20:34:49.607Z,93.00
2022-11-03T20:37:20.688Z,93.00
2022-11-03T20:39:48.790Z,93.00
2022-11-03T20:42:21.800Z,92.50
2022-11-03T20:44:49.350Z,92.80
2022-11-03T20:47:17.752Z,92.80
2022-11-03T20:49:45.975Z,92.60
2022-11-03T20:52:14.080Z,91.90
2022-11-03T20:54:45.478Z,92.10
2022-11-03T20:57:13.763Z,92.20
2022-11-03T20:59:41.510Z,92.30
2022-11-03T21:02:13.387Z,92.10
2022-11-03T21:04:41.713Z,92.20
2022-11-03T21:07:13.671Z,91.90
2022-11-03T21:09:41.435Z,91.90
2022-11-03T21:12:13.300Z,92.00
2022-11-03T21:15:01.548Z,91.60
2022-11-03T21:17:47.662Z,91.30
2022-11-03T21:20:15.298Z,91.50
2022-11-03T21:22:52.474Z,91.30
2022-11-03T21:25:22.533Z,91.70
2022-11-03T21:27:50.021Z,91.10
2022-11-03T21:30:17.827Z,91.10
2022-11-03T21:32:45.541Z,91.30
2022-11-03T21:35:17.930Z,91.60
2022-11-03T21:37:45.487Z,91.90
2022-11-03T21:40:13.134Z,91.90
2022-11-03T21:42:59.032Z,91.40
2022-11-03T21:45:26.744Z,91.30
2022-11-03T21:48:14.275Z,91.40
2022-11-03T21:50:42.409Z,92.00
2022-11-03T21:53:10.601Z,91.90
2022-11-03T21:55:39.019Z,92.10
2022-11-03T21:58:06.649Z,92.40
2022-11-03T22:00:34.158Z,92.20
2022-11-03T22:03:03.050Z,92.00
2022-11-03T22:05:30.523Z,91.40
2022-11-03T22:07:57.982Z,91.50
2022-11-03T22:10:25.497Z,91.60
2022-11-03T22:12:52.993Z,91.50
2022-11-03T22:15:38.559Z,91.40
2022-11-03T22:18:06.883Z,91.00
2022-11-03T22:20:55.712Z,90.70
2022-11-03T22:23:41.285Z,90.90
2022-11-03T22:26:31.354Z,90.90
2022-11-03T22:29:17.909Z,91.20
2022-11-03T22:31:45.523Z,90.80
2022-11-03T22:34:31.635Z,90.90
2022-11-03T22:36:59.274Z,90.90
2022-11-03T22:39:45.012Z,91.20
2022-11-03T22:42:48.954Z,90.80
2022-11-03T22:45:35.030Z,90.90
2022-11-03T22:48:03.694Z,91.30
2022-11-03T22:50:31.775Z,91.30
2022-11-03T22:52:59.287Z,91.10
2022-11-03T22:55:26.838Z,91.30
2022-11-03T22:57:54.316Z,91.30
2022-11-03T23:00:23.571Z,91.50
2022-11-03T23:02:53.685Z,91.40
2022-11-03T23:05:21.161Z,91.40
2022-11-03T23:07:48.640Z,91.30
2022-11-03T23:10:16.153Z,91.40
2022-11-03T23:12:43.639Z,91.40
2022-11-03T23:15:29.295Z,91.40
2022-11-03T23:18:15.143Z,91.50
2022-11-03T23:21:00.939Z,91.40
2022-11-03T23:23:46.947Z,91.50
2022-11-03T23:26:14.950Z,91.30
2022-11-03T23:28:42.760Z,91.50
2022-11-03T23:31:11.461Z,91.60
2022-11-03T23:33:39.212Z,91.40
2022-11-03T23:36:07.731Z,91.50
2022-11-03T23:38:36.217Z,91.30
2022-11-03T23:41:04.842Z,91.30
2022-11-03T23:43:32.370Z,91.20
2022-11-03T23:46:18.475Z,91.00
2022-11-03T23:48:45.952Z,91.00
2022-11-03T23:51:17.886Z,90.90
2022-11-03T23:53:46.122Z,90.90
2022-11-03T23:56:33.245Z,90.60
2022-11-03T23:59:00.853Z,90.40
